首页
METAR-TAF:

METAR-TAF

机场 :

蘇聖瑪麗, 安大略省, 加拿大

纬度: 46-29N, 经度: 084-30W, 海拔: 187米

当前天气观测

该预报发布于44分钟前的09:00 UTC
风速12节,风向西南,有时为19节阵风
温度 -10°C
湿度 61%
气压 1029 hPa
能見度: 24.1公里
少量云层高于4200英尺
少量云层高于10000英尺
多云层高于15000英尺
多云层高于20000英尺
低吹雪

METAR: CYAM 120900Z 23012G19KT 15SM DRSN FEW042 FEW100 BKN150 BKN200 M10/M16 A3040 RMK CU1AC1AS4CS1 SLP312

时间: 04:44 (09:44 UTC)

预报

该预报发布于2小时和1分钟前的07:43 UTC
预报有效从12日的 08点(UTC)到 12日的 20点(UTC)
风速12节,风向西转西南
能見度: 10公里
多云层高于4000英尺
阴天层高于16000英尺
从 12日的 0900点(UTC)
风速8节,风向西转西南
能見度: 10公里
散云层高于4000英尺
阴天层高于12000英尺
从 12日的 1200点(UTC)
风速10节,风向西转西南
能見度: 10公里
阴天层高于8000英尺
短暂存在
从 12日的 12点(UTC)到 12日的 15点(UTC)
能見度: 8.0公里
小雪
从 12日的 1500点(UTC)
风速10节,风向西转西南
能見度: 3.2公里
阴天层高于2000英尺
小雪
几率 30%
从 12日的 15点(UTC)到 12日的 18点(UTC)
层高于1500英尺
小雪
从 12日的 1800点(UTC)
风速7节,风向东转东南
能見度: 3.2公里
阴天层高于2000英尺
小雪
几率 30%
从 12日的 18点(UTC)到 12日的 20点(UTC)
层高于1500英尺
小雪

TAF: CYAM 120743Z 1208/1220 24012KT P6SM BKN040 OVC160 FM120900 24008KT P6SM SCT040 OVC120 FM121200 24010KT P6SM OVC080 TEMPO 1212/1215 5SM -SN FM121500 24010KT 2SM -SN OVC020 PROB30 1215/1218 11/2SM -SN VV015 FM121800 11007KT 2SM -SN OVC020 PROB30 1218/1220 11/2SM -SN VV015 RMK NXT FCST BY 121400Z

超过4000个机场的气象观测和天气预报(METAR&TAF报告)。

可查询的气象台以黄色和红色小点在地图上表示。

将鼠标移到小点上方,可查看气象台名称。

然后点击查看天气观测和预报。

如需切换地图:点击带黑十字的绿色按钮放大地图;点击带横线的绿色按钮缩小地图;或者点击绿色箭头查看邻近地区的地图。


METAR-TAF: